Time;durP1;ratioP1;P1;durP2;ratioP2;P2;SDS_P1;SDS_P2;PMS_P1;PMS_P2;Temp;Humidity;BMP_temperature;BMP_pressure;BME280_temperature;BME280_humidity;BME280_pressure;Samples;Min_cycle;Max_cycle;Signal;HPM_P1;HPM_P2
2021/05/17 00:00:13;;;;;;;2.50;2.30;;;10.20;99.90;;;;;;5026442;28;20807;-59
2021/05/17 00:02:44;;;;;;;2.97;2.40;;;10.20;99.90;;;;;;5026933;28;20316;-60
2021/05/17 00:05:13;;;;;;;2.63;2.43;;;10.20;99.90;;;;;;5027646;28;20249;-60
2021/05/17 00:07:42;;;;;;;4.40;2.40;;;10.20;99.90;;;;;;5026834;28;20718;-60
2021/05/17 00:10:11;;;;;;;4.17;2.87;;;10.10;99.90;;;;;;5026440;28;20328;-60
2021/05/17 00:12:40;;;;;;;4.33;3.20;;;10.00;99.90;;;;;;5026704;28;20245;-59
2021/05/17 00:15:13;;;;;;;4.67;3.77;;;9.90;99.90;;;;;;5026727;28;20250;-60
2021/05/17 00:17:42;;;;;;;4.83;3.70;;;9.90;99.90;;;;;;5026860;28;21567;-60
2021/05/17 00:20:13;;;;;;;3.93;3.50;;;9.90;99.90;;;;;;5026595;28;20287;-60
2021/05/17 00:22:42;;;;;;;4.33;3.70;;;9.80;99.90;;;;;;5026957;28;20237;-60
2021/05/17 00:25:11;;;;;;;4.93;4.10;;;9.70;99.90;;;;;;5027323;28;20246;-60
2021/05/17 00:27:40;;;;;;;6.33;4.43;;;9.60;99.90;;;;;;5026497;28;20231;-59
2021/05/17 00:30:10;;;;;;;5.93;4.43;;;9.60;99.90;;;;;;5026314;28;20233;-59
2021/05/17 00:32:39;;;;;;;5.57;4.20;;;9.50;99.90;;;;;;5025150;28;20230;-60
2021/05/17 00:35:09;;;;;;;6.13;4.53;;;9.50;99.90;;;;;;5027250;28;20259;-60
2021/05/17 00:37:37;;;;;;;5.33;4.43;;;9.50;99.90;;;;;;5030136;28;20282;-60
2021/05/17 00:40:08;;;;;;;5.07;4.57;;;9.40;99.90;;;;;;5029529;28;20241;-60
2021/05/17 00:42:37;;;;;;;6.03;4.33;;;9.50;99.90;;;;;;5030152;28;20229;-60
2021/05/17 00:45:08;;;;;;;5.33;4.63;;;9.60;99.90;;;;;;5030276;28;20721;-60
2021/05/17 00:47:41;;;;;;;5.30;4.40;;;9.50;99.90;;;;;;5030203;28;20236;-60
2021/05/17 00:50:14;;;;;;;6.57;5.20;;;9.40;99.90;;;;;;5027807;28;20241;-60
2021/05/17 00:52:43;;;;;;;5.63;4.50;;;9.40;99.90;;;;;;5030167;28;20733;-60
2021/05/17 00:55:13;;;;;;;6.43;4.20;;;9.40;99.90;;;;;;5025064;28;20762;-60
2021/05/17 00:57:42;;;;;;;6.70;5.03;;;9.30;99.90;;;;;;5025176;28;20234;-60
2021/05/17 01:00:13;;;;;;;6.13;5.00;;;9.30;99.90;;;;;;5044635;28;20720;-60
2021/05/17 01:02:53;;;;;;;7.00;5.03;;;9.30;99.90;;;;;;5028532;28;20229;-60
2021/05/17 01:05:44;;;;;;;6.43;5.30;;;9.30;99.90;;;;;;5021580;28;20250;-60
2021/05/17 01:08:21;;;;;;;6.57;5.60;;;9.30;99.90;;;;;;5028316;28;20720;-60
2021/05/17 01:10:56;;;;;;;7.27;5.30;;;9.30;99.90;;;;;;5044732;28;20261;-60
2021/05/17 01:13:27;;;;;;;6.67;5.43;;;9.30;99.90;;;;;;5029604;28;20338;-60
2021/05/17 01:15:58;;;;;;;7.70;5.97;;;9.30;99.90;;;;;;5045343;28;20291;-60
2021/05/17 01:18:28;;;;;;;6.00;5.37;;;9.20;99.90;;;;;;5027946;28;20233;-59
2021/05/17 01:20:57;;;;;;;9.47;5.60;;;9.20;99.90;;;;;;5029129;28;20780;-59
2021/05/17 01:23:42;;;;;;;8.03;5.77;;;9.20;99.90;;;;;;5029761;28;20696;-59
2021/05/17 01:26:13;;;;;;;9.30;5.67;;;9.20;99.90;;;;;;5043855;28;20282;-59
2021/05/17 01:28:43;;;;;;;6.53;5.87;;;9.20;99.90;;;;;;5028903;28;20261;-60
2021/05/17 01:31:12;;;;;;;7.93;5.57;;;9.10;99.90;;;;;;5041494;28;20242;-60
2021/05/17 01:33:44;;;;;;;7.97;5.60;;;9.20;99.90;;;;;;5044358;28;20275;-59
2021/05/17 01:36:14;;;;;;;6.50;5.83;;;9.20;99.90;;;;;;5027707;28;20280;-58
2021/05/17 01:38:47;;;;;;;10.50;6.03;;;9.20;99.90;;;;;;5029000;28;20239;-59
2021/05/17 01:41:18;;;;;;;8.27;6.00;;;9.20;99.90;;;;;;5027153;28;20235;-60
2021/05/17 01:43:52;;;;;;;7.13;6.43;;;9.10;99.90;;;;;;5028096;28;20307;-60
2021/05/17 01:46:24;;;;;;;7.13;5.60;;;9.10;99.90;;;;;;5029179;28;20708;-60
2021/05/17 01:48:59;;;;;;;6.50;5.90;;;9.30;99.90;;;;;;5043457;28;20240;-60
2021/05/17 01:51:29;;;;;;;10.17;7.50;;;9.30;99.90;;;;;;5026694;28;20237;-60
2021/05/17 01:54:11;;;;;;;6.96;6.26;;;9.40;99.90;;;;;;4905530;28;10001081;-60
2021/05/17 01:56:42;;;;;;;7.47;6.10;;;9.30;99.90;;;;;;1731399;28;10002040;-60
2021/05/17 01:59:30;;;;;;;6.13;5.53;;;9.20;99.90;;;;;;5043441;28;20239;-60
2021/05/17 02:02:00;;;;;;;8.37;6.10;;;9.10;99.90;;;;;;5028556;28;20271;-60
2021/05/17 02:04:30;;;;;;;9.07;6.60;;;9.10;99.90;;;;;;5028996;28;20616;-60
2021/05/17 02:06:59;;;;;;;8.07;6.40;;;9.10;99.90;;;;;;5028377;28;20224;-60
2021/05/17 02:09:33;;;;;;;9.10;6.70;;;9.10;99.90;;;;;;5026439;28;20241;-59
2021/05/17 02:12:04;;;;;;;7.67;6.80;;;9.10;99.90;;;;;;5028527;28;20237;-59
2021/05/17 02:14:54;;;;;;;7.53;6.53;;;9.10;99.90;;;;;;5028160;28;20351;-60
2021/05/17 02:17:26;;;;;;;8.13;6.67;;;9.10;99.90;;;;;;5026727;28;20228;-60
2021/05/17 02:19:55;;;;;;;8.30;6.43;;;9.10;99.90;;;;;;5027705;28;20237;-60
2021/05/17 02:22:23;;;;;;;8.03;6.73;;;9.00;99.90;;;;;;5043637;28;20308;-59
2021/05/17 02:25:12;;;;;;;8.53;6.80;;;9.00;99.90;;;;;;5024362;28;20319;-59
2021/05/17 02:27:42;;;;;;;7.67;6.87;;;9.00;99.90;;;;;;5026444;28;20277;-59
2021/05/17 02:30:12;;;;;;;8.20;7.23;;;9.10;99.90;;;;;;5026915;28;20630;-60
2021/05/17 02:32:42;;;;;;;11.47;7.57;;;9.00;99.90;;;;;;5027980;28;20243;-60
2021/05/17 02:35:14;;;;;;;8.00;7.10;;;8.90;99.90;;;;;;5027068;28;20248;-60
2021/05/17 02:37:43;;;;;;;7.93;7.13;;;8.90;99.90;;;;;;5026917;28;20251;-59
2021/05/17 02:40:14;;;;;;;7.83;7.03;;;8.90;99.90;;;;;;5042528;28;20244;-58
2021/05/17 02:42:45;;;;;;;8.63;6.97;;;8.80;99.90;;;;;;5026542;28;20268;-60
2021/05/17 02:45:17;;;;;;;8.03;6.90;;;8.70;99.90;;;;;;5043542;28;20255;-59
2021/05/17 02:47:46;;;;;;;8.13;7.00;;;8.70;99.90;;;;;;5027798;28;20249;-59
2021/05/17 02:50:16;;;;;;;7.90;7.10;;;8.80;99.90;;;;;;5026740;28;20260;-59
2021/05/17 02:52:45;;;;;;;8.37;7.30;;;8.80;99.90;;;;;;5027790;28;20639;-59
2021/05/17 02:55:15;;;;;;;10.13;7.77;;;8.80;99.90;;;;;;5042611;28;20236;-60
2021/05/17 02:58:03;;;;;;;8.37;7.10;;;8.70;99.90;;;;;;5025939;28;20252;-59
2021/05/17 03:00:34;;;;;;;7.80;7.07;;;8.70;99.90;;;;;;5007472;28;20307;-59
2021/05/17 03:03:15;;;;;;;9.20;7.63;;;8.70;99.90;;;;;;5024208;28;20241;-59
2021/05/17 03:06:08;;;;;;;8.07;7.17;;;8.70;99.90;;;;;;5023839;28;20255;-60
2021/05/17 03:08:50;;;;;;;8.33;7.03;;;8.70;99.90;;;;;;5023590;28;20239;-59
2021/05/17 03:11:23;;;;;;;8.97;7.83;;;8.90;99.90;;;;;;5005956;28;20311;-59
2021/05/17 03:13:53;;;;;;;10.63;7.10;;;9.00;99.90;;;;;;5023344;28;20261;-59
2021/05/17 03:16:24;;;;;;;8.33;7.43;;;8.70;99.90;;;;;;5023538;28;20295;-60
2021/05/17 03:18:55;;;;;;;10.27;7.67;;;8.60;99.90;;;;;;5040773;28;20315;-59
2021/05/17 03:21:27;;;;;;;9.30;7.33;;;8.80;99.90;;;;;;5026536;28;20236;-59
2021/05/17 03:23:57;;;;;;;8.83;7.80;;;8.80;99.90;;;;;;5027842;28;20240;-58
2021/05/17 03:26:27;;;;;;;8.30;7.50;;;8.90;99.90;;;;;;5024491;28;20315;-58
2021/05/17 03:28:55;;;;;;;8.60;7.40;;;8.90;99.90;;;;;;5026950;28;20372;-59
2021/05/17 03:31:23;;;;;;;9.53;8.53;;;8.80;99.90;;;;;;5026267;28;20777;-60
2021/05/17 03:33:51;;;;;;;9.90;8.13;;;8.80;99.90;;;;;;5027990;28;20491;-59
2021/05/17 03:36:21;;;;;;;8.70;7.90;;;8.80;99.90;;;;;;5027834;28;20243;-60
2021/05/17 03:38:49;;;;;;;8.33;7.53;;;8.70;99.90;;;;;;5026794;28;20726;-60
2021/05/17 03:41:17;;;;;;;7.70;6.90;;;8.70;99.90;;;;;;5026361;28;20242;-59
2021/05/17 03:43:46;;;;;;;10.30;7.83;;;8.70;99.90;;;;;;5027257;28;20664;-59
2021/05/17 03:46:14;;;;;;;8.20;7.40;;;8.80;99.90;;;;;;5027694;28;20584;-59
2021/05/17 03:48:41;;;;;;;9.63;7.70;;;8.80;99.90;;;;;;5026931;28;20224;-59
2021/05/17 03:51:10;;;;;;;8.17;6.80;;;8.70;99.90;;;;;;5025963;28;20310;-59
2021/05/17 03:53:39;;;;;;;7.77;7.07;;;8.80;99.90;;;;;;5026858;28;20237;-58
2021/05/17 03:56:07;;;;;;;7.93;7.23;;;8.70;99.90;;;;;;5027305;28;20304;-59
2021/05/17 03:58:35;;;;;;;7.97;7.17;;;8.70;99.90;;;;;;5027190;28;20230;-60
2021/05/17 04:01:04;;;;;;;8.30;7.30;;;8.60;99.90;;;;;;5026571;28;20228;-59
2021/05/17 04:03:32;;;;;;;9.40;7.73;;;8.60;99.90;;;;;;5027561;28;20644;-60
2021/05/17 04:06:07;;;;;;;9.43;7.53;;;8.70;99.90;;;;;;5027271;28;20312;-59
2021/05/17 04:14:07;;;;;;;10.10;9.00;;;9.00;99.90;;;;;;5013857;28;20251;-57
2021/05/17 04:16:35;;;;;;;10.27;8.73;;;9.20;99.90;;;;;;5030233;28;20302;-58
2021/05/17 04:19:04;;;;;;;9.40;8.40;;;9.10;99.90;;;;;;5030003;28;20566;-59
2021/05/17 04:21:31;;;;;;;9.27;8.37;;;9.10;99.90;;;;;;5026444;28;20275;-59
2021/05/17 04:23:59;;;;;;;10.97;8.63;;;9.00;99.90;;;;;;5025681;28;20248;-57
2021/05/17 04:26:27;;;;;;;11.03;9.17;;;9.10;99.90;;;;;;5030813;28;20241;-58
2021/05/17 04:28:55;;;;;;;12.80;9.17;;;9.20;99.90;;;;;;5030343;28;20233;-60
2021/05/17 04:31:23;;;;;;;12.27;9.80;;;9.20;99.90;;;;;;5030069;28;20321;-59
2021/05/17 04:33:51;;;;;;;11.80;10.20;;;9.40;99.90;;;;;;5030871;28;20248;-59
2021/05/17 04:36:19;;;;;;;12.03;10.20;;;9.40;99.90;;;;;;5030668;28;20304;-59
2021/05/17 04:38:47;;;;;;;12.63;9.77;;;9.50;99.90;;;;;;5028837;28;20241;-59
2021/05/17 04:41:15;;;;;;;12.17;10.13;;;9.60;99.90;;;;;;5029467;28;20272;-60
2021/05/17 04:43:42;;;;;;;10.97;9.80;;;9.70;99.90;;;;;;5030229;28;20757;-59
2021/05/17 04:46:10;;;;;;;10.17;9.13;;;9.60;99.90;;;;;;5030316;28;20705;-59
2021/05/17 04:48:48;;;;;;;15.40;10.37;;;9.70;99.90;;;;;;5041969;28;20242;-60
2021/05/17 04:51:19;;;;;;;17.40;11.13;;;9.80;99.90;;;;;;5009679;28;20292;-59
2021/05/17 04:53:47;;;;;;;17.40;13.23;;;9.80;99.90;;;;;;5028823;28;20236;-59
2021/05/17 04:56:15;;;;;;;13.23;10.67;;;9.90;99.90;;;;;;5030050;28;20720;-59
2021/05/17 04:58:43;;;;;;;10.97;9.80;;;9.90;99.90;;;;;;5029142;28;20244;-59
2021/05/17 05:01:11;;;;;;;14.77;10.30;;;9.70;99.90;;;;;;5028278;28;20238;-59
2021/05/17 05:03:39;;;;;;;14.60;11.40;;;9.70;99.90;;;;;;5029593;28;20225;-59
2021/05/17 05:06:07;;;;;;;12.10;10.83;;;10.00;99.90;;;;;;5029841;28;20238;-60
2021/05/17 05:08:36;;;;;;;14.93;10.63;;;9.90;99.90;;;;;;5028972;28;20265;-60
2021/05/17 05:11:03;;;;;;;15.17;11.70;;;10.10;99.90;;;;;;5027467;28;20640;-60
2021/05/17 05:13:31;;;;;;;12.90;10.70;;;10.10;99.90;;;;;;5023934;28;20234;-60
2021/05/17 05:15:59;;;;;;;11.97;10.40;;;9.90;99.90;;;;;;5030150;28;20272;-59
2021/05/17 05:18:27;;;;;;;15.07;10.80;;;9.90;99.90;;;;;;5024969;28;20235;-60
2021/05/17 05:20:55;;;;;;;17.07;12.17;;;10.00;99.90;;;;;;5025652;28;20233;-60
2021/05/17 05:23:23;;;;;;;12.87;11.17;;;10.40;99.90;;;;;;5024647;28;20238;-59
2021/05/17 05:28:50;;;;;;;12.87;10.63;;;10.80;99.90;;;;;;5025672;28;20225;-60
2021/05/17 05:31:23;;;;;;;12.17;10.87;;;11.00;99.90;;;;;;5039209;28;20416;-59
2021/05/17 05:33:51;;;;;;;12.73;11.17;;;11.30;99.90;;;;;;5025696;28;20234;-60
2021/05/17 05:36:19;;;;;;;14.87;10.60;;;11.50;99.90;;;;;;5025275;28;20640;-60
2021/05/17 05:38:47;;;;;;;12.67;10.90;;;11.80;99.90;;;;;;5023091;28;20300;-60
2021/05/17 05:41:15;;;;;;;11.63;10.00;;;12.20;99.90;;;;;;5024901;28;20235;-60
2021/05/17 05:43:43;;;;;;;13.60;10.50;;;12.40;99.90;;;;;;5026826;28;20264;-61
2021/05/17 05:46:11;;;;;;;12.60;10.13;;;12.60;99.90;;;;;;5026810;28;20556;-60
2021/05/17 05:48:47;;;;;;;11.23;8.70;;;12.60;99.90;;;;;;5024232;28;20718;-60
2021/05/17 05:51:17;;;;;;;11.97;9.17;;;12.70;99.90;;;;;;5024624;28;20251;-60
2021/05/17 05:53:45;;;;;;;13.77;8.97;;;12.90;99.90;;;;;;5027940;28;20247;-60
2021/05/17 05:56:13;;;;;;;11.30;8.37;;;12.90;99.90;;;;;;5027869;28;20243;-60
2021/05/17 05:58:44;;;;;;;10.57;9.47;;;12.80;99.90;;;;;;5026705;28;20698;-60
2021/05/17 06:01:13;;;;;;;9.83;8.70;;;12.70;99.90;;;;;;5026560;28;20290;-61
2021/05/17 06:03:41;;;;;;;8.80;7.90;;;12.70;99.90;;;;;;5027447;28;20243;-60
2021/05/17 06:06:09;;;;;;;10.07;8.33;;;12.70;99.90;;;;;;5026566;28;20231;-60
2021/05/17 06:08:40;;;;;;;10.53;7.93;;;12.90;99.90;;;;;;5026297;28;20242;-59
2021/05/17 06:11:09;;;;;;;9.77;8.27;;;13.20;99.90;;;;;;5025981;28;20278;-59
2021/05/17 06:13:39;;;;;;;10.63;8.40;;;13.50;99.90;;;;;;5028276;28;20243;-61
2021/05/17 06:16:10;;;;;;;9.57;7.53;;;13.70;99.90;;;;;;5026739;28;20774;-60
2021/05/17 06:18:38;;;;;;;10.03;9.00;;;14.00;99.90;;;;;;5023786;28;20228;-60
2021/05/17 06:21:07;;;;;;;9.43;7.70;;;14.20;99.90;;;;;;5023308;28;20255;-60
2021/05/17 06:23:36;;;;;;;9.47;8.30;;;14.40;99.90;;;;;;5027317;28;20285;-59
2021/05/17 06:26:05;;;;;;;10.40;8.10;;;14.70;99.90;;;;;;5027167;28;21108;-60
2021/05/17 06:28:33;;;;;;;8.63;7.00;;;15.00;99.90;;;;;;5024146;28;20233;-59
2021/05/17 06:31:04;;;;;;;7.83;6.77;;;15.20;99.90;;;;;;5025954;28;20235;-59
2021/05/17 06:33:36;;;;;;;7.10;6.40;;;15.40;99.90;;;;;;5027265;28;20232;-59
2021/05/17 06:36:09;;;;;;;10.47;7.03;;;15.60;99.90;;;;;;5027273;28;20228;-60
2021/05/17 06:38:39;;;;;;;9.00;7.00;;;15.90;99.90;;;;;;5023859;28;20263;-59
2021/05/17 06:41:08;;;;;;;8.50;6.90;;;16.10;99.90;;;;;;5026181;28;20252;-59
2021/05/17 06:43:36;;;;;;;6.97;5.90;;;16.10;99.90;;;;;;5024496;28;20231;-60
2021/05/17 06:46:07;;;;;;;7.77;6.00;;;16.10;99.90;;;;;;5027220;28;20299;-60
2021/05/17 06:48:42;;;;;;;6.93;5.47;;;16.40;99.90;;;;;;5024060;28;20224;-60
2021/05/17 06:51:16;;;;;;;5.73;5.23;;;16.70;99.90;;;;;;5022567;28;20239;-60
2021/05/17 06:53:45;;;;;;;6.03;5.40;;;16.80;99.90;;;;;;5026774;28;20249;-59
2021/05/17 06:56:19;;;;;;;6.60;5.80;;;17.00;99.90;;;;;;5027199;28;20225;-59
2021/05/17 06:58:54;;;;;;;5.77;5.00;;;17.10;99.90;;;;;;5025328;28;20239;-59
2021/05/17 07:01:23;;;;;;;7.27;4.77;;;17.40;99.90;;;;;;5025755;28;20286;-60
2021/05/17 07:03:54;;;;;;;4.63;4.20;;;17.50;99.90;;;;;;5027174;28;20286;-59
2021/05/17 07:06:23;;;;;;;7.80;4.27;;;17.60;99.90;;;;;;5022504;28;20334;-59
2021/05/17 07:11:46;;;;;;;4.27;3.23;;;17.70;99.90;;;;;;5030631;28;20230;-59
2021/05/17 07:14:15;;;;;;;5.27;3.10;;;18.00;99.90;;;;;;5024280;28;20313;-60
2021/05/17 07:16:43;;;;;;;6.57;3.20;;;18.10;99.90;;;;;;5024904;28;20225;-59
2021/05/17 07:19:12;;;;;;;6.97;3.20;;;18.10;99.90;;;;;;5026122;28;20732;-59
2021/05/17 07:24:27;;;;;;;5.03;3.03;;;17.90;99.90;;;;;;5024765;28;20294;-59
2021/05/17 07:26:55;;;;;;;5.50;3.50;;;18.00;99.90;;;;;;5023721;28;20325;-59
2021/05/17 07:29:23;;;;;;;4.77;3.20;;;18.20;99.90;;;;;;5027237;28;20391;-58
2021/05/17 07:31:51;;;;;;;5.50;3.40;;;18.10;99.90;;;;;;5026781;28;20237;-60
2021/05/17 07:34:20;;;;;;;4.77;3.10;;;18.00;99.90;;;;;;5027197;28;20240;-59
2021/05/17 07:36:49;;;;;;;6.03;3.90;;;18.30;99.90;;;;;;5026786;28;20343;-59
2021/05/17 07:39:17;;;;;;;6.83;3.80;;;18.60;99.90;;;;;;5026734;28;20272;-58
2021/05/17 07:41:45;;;;;;;6.13;3.43;;;18.90;99.90;;;;;;5026850;28;20774;-59
2021/05/17 07:44:12;;;;;;;6.27;3.63;;;19.20;99.90;;;;;;5031025;28;20243;-59
2021/05/17 07:46:40;;;;;;;5.67;3.17;;;19.50;99.90;;;;;;5031214;28;20253;-58
2021/05/17 07:49:10;;;;;;;6.47;3.53;;;19.50;99.90;;;;;;5031027;28;20377;-56
2021/05/17 07:51:42;;;;;;;5.93;3.13;;;19.40;99.90;;;;;;5030331;28;20645;-59
2021/05/17 07:54:11;;;;;;;6.13;3.30;;;19.40;99.90;;;;;;5030786;28;20558;-59
2021/05/17 07:56:39;;;;;;;5.63;3.53;;;19.50;99.90;;;;;;5031085;28;20254;-58
2021/05/17 07:59:07;;;;;;;6.30;3.30;;;19.40;99.90;;;;;;5030285;28;20235;-58
2021/05/17 08:01:35;;;;;;;6.13;3.37;;;19.20;99.90;;;;;;5029792;28;20239;-59
2021/05/17 08:04:05;;;;;;;3.80;2.70;;;19.00;99.90;;;;;;5030230;28;20262;-58
2021/05/17 08:06:33;;;;;;;5.20;2.87;;;19.20;99.90;;;;;;5030860;28;20619;-59
2021/05/17 08:09:02;;;;;;;4.70;3.00;;;18.90;99.90;;;;;;5030117;28;20597;-58
2021/05/17 08:11:29;;;;;;;5.07;3.00;;;18.70;99.90;;;;;;5029796;28;20333;-57
2021/05/17 08:13:57;;;;;;;6.57;3.23;;;18.90;99.90;;;;;;5024706;28;20235;-58
2021/05/17 08:16:25;;;;;;;4.63;2.50;;;19.30;99.90;;;;;;5027126;28;20266;-59
2021/05/17 08:18:53;;;;;;;4.97;2.37;;;19.50;99.90;;;;;;5030411;28;20236;-56
2021/05/17 08:21:21;;;;;;;4.30;2.30;;;19.90;99.90;;;;;;5030221;28;20320;-59
2021/05/17 08:23:49;;;;;;;5.97;2.50;;;19.90;99.90;;;;;;5030933;28;20262;-59
2021/05/17 08:26:18;;;;;;;3.97;2.27;;;20.20;99.90;;;;;;5045691;28;20236;-56
2021/05/17 08:28:46;;;;;;;7.73;3.50;;;20.50;99.90;;;;;;5030045;28;20776;-60
2021/05/17 08:31:16;;;;;;;4.37;2.60;;;19.90;99.90;;;;;;5029509;28;20788;-58
2021/05/17 08:33:44;;;;;;;3.57;2.60;;;19.60;99.90;;;;;;5027143;28;20239;-58
2021/05/17 08:36:12;;;;;;;4.83;2.43;;;19.70;99.90;;;;;;5025993;28;20236;-58
2021/05/17 08:38:41;;;;;;;5.03;2.40;;;19.60;99.90;;;;;;5028832;28;20732;-60
2021/05/17 08:41:12;;;;;;;6.33;3.20;;;19.50;99.90;;;;;;5027654;28;20374;-58
2021/05/17 08:43:43;;;;;;;4.70;3.27;;;19.40;99.90;;;;;;5029935;28;20243;-59
2021/05/17 08:46:12;;;;;;;5.93;3.20;;;19.20;99.90;;;;;;5027015;28;20638;-59
2021/05/17 08:48:47;;;;;;;5.10;3.10;;;19.00;99.90;;;;;;5023199;28;20539;-59
2021/05/17 08:51:23;;;;;;;7.70;3.03;;;18.70;99.90;;;;;;5029272;28;20310;-58
2021/05/17 08:53:51;;;;;;;6.10;3.30;;;18.40;99.90;;;;;;5027172;28;20634;-59
2021/05/17 08:56:20;;;;;;;4.50;3.40;;;18.10;99.90;;;;;;5029301;28;20244;-59
2021/05/17 08:58:54;;;;;;;6.33;3.37;;;17.90;99.90;;;;;;5026495;28;20243;-59
2021/05/17 09:01:22;;;;;;;5.80;3.73;;;17.60;99.90;;;;;;5027777;28;20484;-60
2021/05/17 09:04:01;;;;;;;6.47;3.67;;;17.30;99.90;;;;;;5028821;28;20236;-60
2021/05/17 09:06:40;;;;;;;5.47;4.00;;;17.00;99.90;;;;;;5031798;28;20226;-59
2021/05/17 09:09:24;;;;;;;6.97;4.20;;;16.70;99.90;;;;;;5040183;28;20279;-60
2021/05/17 09:11:54;;;;;;;9.47;4.07;;;16.50;99.90;;;;;;5027921;28;20275;-59
2021/05/17 09:14:24;;;;;;;7.10;4.40;;;16.20;99.90;;;;;;5029080;28;20291;-58
2021/05/17 09:16:57;;;;;;;7.93;4.80;;;16.10;99.90;;;;;;5028173;28;20381;-57
2021/05/17 09:19:28;;;;;;;6.80;4.80;;;16.10;99.90;;;;;;5035960;28;20244;-60
2021/05/17 09:22:08;;;;;;;8.57;5.57;;;16.10;99.90;;;;;;5028553;28;20633;-59
2021/05/17 09:24:43;;;;;;;7.67;5.87;;;16.10;99.90;;;;;;5027874;28;20228;-59
2021/05/17 09:27:17;;;;;;;6.90;5.47;;;16.10;99.90;;;;;;5027456;28;20237;-58
2021/05/17 09:29:48;;;;;;;11.10;9.00;;;16.10;99.90;;;;;;5028125;28;20237;-59
2021/05/17 09:32:24;;;;;;;10.10;8.60;;;16.00;99.90;;;;;;5026628;28;20604;-59
2021/05/17 09:35:02;;;;;;;11.40;9.03;;;16.00;99.90;;;;;;5026032;28;20232;-59
2021/05/17 09:37:45;;;;;;;10.30;9.20;;;16.00;99.90;;;;;;5027386;28;20245;-60
2021/05/17 09:40:21;;;;;;;10.97;9.90;;;16.10;99.90;;;;;;5037677;28;20232;-58
2021/05/17 09:43:00;;;;;;;12.50;11.30;;;16.20;99.90;;;;;;5031455;28;20236;-60
2021/05/17 09:45:44;;;;;;;12.20;11.00;;;16.10;99.90;;;;;;5038273;28;20782;-59
2021/05/17 09:48:14;;;;;;;13.53;12.13;;;16.10;99.90;;;;;;5027783;28;20725;-60
2021/05/17 09:51:08;;;;;;;12.97;11.00;;;16.30;99.90;;;;;;5036796;28;20324;-61
2021/05/17 09:53:39;;;;;;;14.50;13.00;;;16.80;99.90;;;;;;5029709;28;20746;-59
2021/05/17 09:56:09;;;;;;;12.87;11.70;;;17.10;99.90;;;;;;5031099;28;20236;-60
2021/05/17 09:58:40;;;;;;;14.17;12.70;;;17.20;99.90;;;;;;5030134;28;20234;-60
2021/05/17 10:01:17;;;;;;;13.57;12.27;;;17.20;99.90;;;;;;5029542;28;20267;-60
2021/05/17 10:03:48;;;;;;;14.17;12.77;;;17.10;99.90;;;;;;5027453;28;20634;-60
2021/05/17 10:06:20;;;;;;;14.07;12.73;;;17.20;99.90;;;;;;5024967;28;20255;-60
2021/05/17 10:08:49;;;;;;;13.50;12.10;;;17.20;99.90;;;;;;5030674;28;20233;-60
2021/05/17 10:11:18;;;;;;;12.77;11.53;;;17.20;99.90;;;;;;5030424;28;20240;-60
2021/05/17 10:13:47;;;;;;;12.93;11.63;;;17.30;99.90;;;;;;5028359;28;20248;-61
2021/05/17 10:16:17;;;;;;;12.33;11.17;;;17.40;99.90;;;;;;5030051;28;20245;-61
2021/05/17 10:18:47;;;;;;;13.07;11.83;;;17.40;99.90;;;;;;5027243;28;20310;-60
2021/05/17 10:21:18;;;;;;;11.07;9.97;;;17.60;99.90;;;;;;5026256;28;20237;-61
2021/05/17 10:23:47;;;;;;;7.87;7.17;;;17.40;99.90;;;;;;5026699;28;20277;-61
2021/05/17 10:26:17;;;;;;;10.47;8.97;;;17.30;99.90;;;;;;5027429;28;20283;-60
2021/05/17 10:28:52;;;;;;;9.23;8.07;;;17.20;99.90;;;;;;5027972;28;20234;-59
2021/05/17 10:31:23;;;;;;;8.93;7.00;;;17.60;99.90;;;;;;5024864;28;20270;-60
2021/05/17 10:34:00;;;;;;;7.30;6.27;;;18.30;99.90;;;;;;5025390;28;20294;-61
2021/05/17 10:36:51;;;;;;;5.40;4.83;;;18.70;99.90;;;;;;5026465;28;20249;-61
2021/05/17 10:39:21;;;;;;;5.67;5.17;;;18.90;99.90;;;;;;5025541;28;20245;-60
2021/05/17 10:42:11;;;;;;;5.43;4.33;;;18.80;99.90;;;;;;5027711;28;20327;-60
2021/05/17 10:48:21;;;;;;;4.47;2.77;;;18.40;99.90;;;;;;5029710;28;20544;-60
2021/05/17 10:50:51;;;;;;;3.07;2.10;;;18.40;99.90;;;;;;5032920;28;20240;-59
2021/05/17 10:53:58;;;;;;;3.93;2.33;;;18.30;99.90;;;;;;5024670;28;20326;-58
2021/05/17 10:56:50;;;;;;;5.07;2.77;;;18.10;99.90;;;;;;5023710;28;20233;-59
2021/05/17 11:02:22;;;;;;;5.50;2.40;;;18.20;99.90;;;;;;5024984;28;20245;-59
2021/05/17 11:04:58;;;;;;;7.83;2.50;;;18.20;99.90;;;;;;5028200;28;20233;-58
2021/05/17 11:07:32;;;;;;;3.97;2.60;;;18.30;99.90;;;;;;5026397;28;20241;-60
2021/05/17 11:10:08;;;;;;;3.33;2.10;;;18.50;99.90;;;;;;5026025;28;20299;-57
2021/05/17 11:13:04;;;;;;;2.77;1.40;;;18.60;99.90;;;;;;5025562;28;20254;-59
2021/05/17 11:16:01;;;;;;;2.90;1.40;;;18.50;99.90;;;;;;5024992;28;20240;-56
2021/05/17 11:18:46;;;;;;;2.63;1.30;;;18.80;99.90;;;;;;5024035;28;20752;-59
2021/05/17 11:21:27;;;;;;;2.37;1.00;;;19.90;99.90;;;;;;5023815;28;20247;-59
2021/05/17 11:23:59;;;;;;;1.70;1.17;;;20.30;99.90;;;;;;5023215;28;20254;-59
2021/05/17 11:26:30;;;;;;;2.40;1.27;;;20.20;99.90;;;;;;5024882;28;20544;-60
2021/05/17 11:29:09;;;;;;;3.67;2.10;;;19.50;99.90;;;;;;5025495;28;20320;-60
2021/05/17 11:31:45;;;;;;;4.67;1.80;;;19.00;99.90;;;;;;5023647;28;20231;-60
2021/05/17 11:34:22;;;;;;;2.43;1.27;;;18.70;99.90;;;;;;5023919;28;20307;-59
2021/05/17 11:37:11;;;;;;;3.93;1.80;;;18.50;99.90;;;;;;5024467;28;20230;-59
2021/05/17 11:39:41;;;;;;;2.97;1.43;;;18.30;99.90;;;;;;5024558;28;20257;-60
2021/05/17 11:42:12;;;;;;;2.03;1.50;;;18.20;99.90;;;;;;5026190;28;20241;-60
2021/05/17 11:44:44;;;;;;;2.73;1.47;;;18.10;99.90;;;;;;5025065;28;20373;-60
2021/05/17 11:47:15;;;;;;;2.77;1.83;;;18.20;99.90;;;;;;5027321;28;20707;-60
2021/05/17 11:49:47;;;;;;;3.13;1.90;;;18.40;99.90;;;;;;5026016;28;20248;-58
2021/05/17 11:52:20;;;;;;;2.80;1.90;;;18.50;99.90;;;;;;5026540;28;22255;-60
2021/05/17 11:54:50;;;;;;;3.53;2.00;;;18.80;99.90;;;;;;5026965;28;20243;-58
2021/05/17 11:57:20;;;;;;;5.90;2.30;;;19.00;99.90;;;;;;5026731;28;20244;-58
2021/05/17 11:59:50;;;;;;;2.63;1.50;;;19.20;99.90;;;;;;5026207;28;20626;-60
2021/05/17 12:02:18;;;;;;;3.20;1.30;;;19.40;99.90;;;;;;5025736;28;20652;-59
2021/05/17 12:04:46;;;;;;;2.43;1.30;;;19.40;99.90;;;;;;5025294;28;20251;-59
2021/05/17 12:07:19;;;;;;;2.77;1.60;;;19.40;99.90;;;;;;5031670;28;20622;-57
2021/05/17 12:09:49;;;;;;;3.93;1.73;;;19.60;99.90;;;;;;5040029;28;20242;-58
2021/05/17 12:12:20;;;;;;;2.23;2.00;;;19.60;99.90;;;;;;5026564;28;20659;-60
2021/05/17 12:14:50;;;;;;;1.83;1.70;;;19.50;99.90;;;;;;5026770;28;20240;-60
2021/05/17 12:17:20;;;;;;;3.20;2.00;;;19.30;99.90;;;;;;5026762;28;20236;-59
2021/05/17 12:19:52;;;;;;;2.67;1.90;;;19.20;99.90;;;;;;5025871;28;20587;-60
2021/05/17 12:22:25;;;;;;;2.50;2.03;;;19.10;99.90;;;;;;5026529;28;20720;-60
2021/05/17 12:24:56;;;;;;;3.10;2.40;;;18.90;99.90;;;;;;5026869;28;20953;-60
2021/05/17 12:27:25;;;;;;;4.20;2.70;;;18.50;99.90;;;;;;5026604;28;20464;-59
2021/05/17 12:29:58;;;;;;;3.63;2.80;;;18.30;99.90;;;;;;5026974;28;20357;-59
2021/05/17 12:32:39;;;;;;;4.37;3.17;;;18.20;99.90;;;;;;5029116;28;20636;-59
2021/05/17 12:35:09;;;;;;;3.77;3.07;;;18.20;99.90;;;;;;5030274;28;20256;-60
2021/05/17 12:37:44;;;;;;;3.17;2.47;;;18.30;99.90;;;;;;5030593;28;20238;-59
2021/05/17 12:40:21;;;;;;;3.40;2.70;;;18.30;99.90;;;;;;5029989;28;20299;-60
2021/05/17 12:43:15;;;;;;;3.03;2.73;;;18.50;99.90;;;;;;5030258;28;20254;-59
2021/05/17 12:45:58;;;;;;;4.60;2.93;;;18.50;99.90;;;;;;5020616;28;20250;-60
2021/05/17 12:48:30;;;;;;;3.97;3.33;;;18.40;99.90;;;;;;5029330;28;20323;-59
2021/05/17 12:51:00;;;;;;;4.20;3.43;;;18.40;99.90;;;;;;5029414;28;20244;-60
2021/05/17 12:53:31;;;;;;;3.33;2.43;;;18.60;99.90;;;;;;5029882;28;20241;-59
2021/05/17 12:56:01;;;;;;;2.80;2.40;;;18.70;99.90;;;;;;5030242;28;20231;-60
2021/05/17 12:58:33;;;;;;;2.93;2.50;;;18.70;99.90;;;;;;5021530;28;20233;-60
2021/05/17 13:01:07;;;;;;;4.00;2.50;;;18.70;99.90;;;;;;5044083;28;20293;-60
2021/05/17 13:03:38;;;;;;;4.00;3.07;;;18.50;99.90;;;;;;5027756;28;20239;-60
2021/05/17 13:06:10;;;;;;;3.50;2.93;;;18.30;99.90;;;;;;5029618;28;20247;-60
2021/05/17 13:08:51;;;;;;;4.83;2.60;;;18.20;99.90;;;;;;5028514;28;20236;-61
2021/05/17 13:11:32;;;;;;;4.43;2.83;;;18.30;99.90;;;;;;5029148;28;20721;-59
2021/05/17 13:14:04;;;;;;;3.50;2.90;;;18.40;99.90;;;;;;5029350;28;20231;-60
2021/05/17 13:16:36;;;;;;;3.07;2.77;;;18.40;99.90;;;;;;5029293;28;20260;-60
2021/05/17 13:19:22;;;;;;;5.13;3.23;;;18.50;99.90;;;;;;5029264;28;20239;-59
2021/05/17 13:22:20;;;;;;;4.33;3.20;;;18.60;99.90;;;;;;5029204;28;20239;-59
2021/05/17 13:30:44;;;;;;;3.70;3.30;;;18.40;99.90;;;;;;5028383;28;20233;-59
2021/05/17 13:33:22;;;;;;;3.57;3.20;;;18.30;99.90;;;;;;5029612;28;20592;-59
2021/05/17 13:35:52;;;;;;;5.27;3.60;;;18.30;99.90;;;;;;5029426;28;20635;-58